sensor_id;sensor_type;location;lat;lon;timestamp;P1;durP1;ratioP1;P2;durP2;ratioP2
42912;SDS011;50720;54.324;18.558;2023-05-20T00:01:46;1.27;;;0.70;;
42912;SDS011;50720;54.324;18.558;2023-05-20T00:04:15;1.70;;;1.10;;
42912;SDS011;50720;54.324;18.558;2023-05-20T00:06:45;2.40;;;0.70;;
42912;SDS011;50720;54.324;18.558;2023-05-20T00:09:15;3.72;;;0.90;;
42912;SDS011;50720;54.324;18.558;2023-05-20T00:11:44;2.45;;;0.82;;
42912;SDS011;50720;54.324;18.558;2023-05-20T00:14:14;3.08;;;0.95;;
42912;SDS011;50720;54.324;18.558;2023-05-20T00:16:44;0.82;;;0.45;;
42912;SDS011;50720;54.324;18.558;2023-05-20T00:19:15;2.50;;;0.88;;
42912;SDS011;50720;54.324;18.558;2023-05-20T00:21:44;1.38;;;0.57;;
42912;SDS011;50720;54.324;18.558;2023-05-20T00:24:14;3.95;;;1.20;;
42912;SDS011;50720;54.324;18.558;2023-05-20T00:26:43;1.52;;;0.45;;
42912;SDS011;50720;54.324;18.558;2023-05-20T00:29:13;3.60;;;0.60;;
42912;SDS011;50720;54.324;18.558;2023-05-20T00:31:42;3.85;;;1.08;;
42912;SDS011;50720;54.324;18.558;2023-05-20T00:34:14;2.03;;;0.85;;
42912;SDS011;50720;54.324;18.558;2023-05-20T00:36:43;1.95;;;0.47;;
42912;SDS011;50720;54.324;18.558;2023-05-20T00:39:12;3.05;;;0.80;;
42912;SDS011;50720;54.324;18.558;2023-05-20T00:41:42;2.78;;;0.52;;
42912;SDS011;50720;54.324;18.558;2023-05-20T00:44:12;6.07;;;1.75;;
42912;SDS011;50720;54.324;18.558;2023-05-20T00:46:41;2.67;;;0.60;;
42912;SDS011;50720;54.324;18.558;2023-05-20T00:49:11;3.95;;;0.73;;
42912;SDS011;50720;54.324;18.558;2023-05-20T00:51:41;3.97;;;1.10;;
42912;SDS011;50720;54.324;18.558;2023-05-20T00:54:11;6.82;;;0.90;;
42912;SDS011;50720;54.324;18.558;2023-05-20T00:56:41;1.70;;;0.80;;
42912;SDS011;50720;54.324;18.558;2023-05-20T00:59:12;2.35;;;0.70;;
42912;SDS011;50720;54.324;18.558;2023-05-20T01:01:41;2.38;;;0.85;;
42912;SDS011;50720;54.324;18.558;2023-05-20T01:04:11;4.55;;;0.95;;
42912;SDS011;50720;54.324;18.558;2023-05-20T01:06:42;1.30;;;0.77;;
42912;SDS011;50720;54.324;18.558;2023-05-20T01:09:12;2.88;;;0.65;;
42912;SDS011;50720;54.324;18.558;2023-05-20T01:11:43;3.33;;;1.10;;
42912;SDS011;50720;54.324;18.558;2023-05-20T01:14:19;2.50;;;0.60;;
42912;SDS011;50720;54.324;18.558;2023-05-20T01:16:51;9.98;;;2.08;;
42912;SDS011;50720;54.324;18.558;2023-05-20T01:19:26;9.60;;;1.95;;
42912;SDS011;50720;54.324;18.558;2023-05-20T01:22:01;1.88;;;0.93;;
42912;SDS011;50720;54.324;18.558;2023-05-20T01:24:34;2.35;;;0.60;;
42912;SDS011;50720;54.324;18.558;2023-05-20T01:27:03;1.92;;;0.85;;
42912;SDS011;50720;54.324;18.558;2023-05-20T01:29:36;3.20;;;0.77;;
42912;SDS011;50720;54.324;18.558;2023-05-20T01:32:07;2.72;;;1.10;;
42912;SDS011;50720;54.324;18.558;2023-05-20T01:34:39;5.65;;;0.75;;
42912;SDS011;50720;54.324;18.558;2023-05-20T01:37:10;3.47;;;0.70;;
42912;SDS011;50720;54.324;18.558;2023-05-20T01:39:43;2.00;;;0.80;;
42912;SDS011;50720;54.324;18.558;2023-05-20T01:42:14;2.95;;;0.73;;
42912;SDS011;50720;54.324;18.558;2023-05-20T01:44:45;2.80;;;0.70;;
42912;SDS011;50720;54.324;18.558;2023-05-20T01:47:14;7.47;;;0.77;;
42912;SDS011;50720;54.324;18.558;2023-05-20T01:49:44;2.90;;;0.93;;
42912;SDS011;50720;54.324;18.558;2023-05-20T01:52:13;4.30;;;0.77;;
42912;SDS011;50720;54.324;18.558;2023-05-20T01:54:45;2.05;;;0.80;;
42912;SDS011;50720;54.324;18.558;2023-05-20T01:57:17;1.58;;;0.90;;
42912;SDS011;50720;54.324;18.558;2023-05-20T02:02:17;2.03;;;0.90;;
42912;SDS011;50720;54.324;18.558;2023-05-20T02:04:47;3.78;;;0.90;;
42912;SDS011;50720;54.324;18.558;2023-05-20T02:09:48;5.45;;;0.90;;
42912;SDS011;50720;54.324;18.558;2023-05-20T02:14:48;5.82;;;0.90;;
42912;SDS011;50720;54.324;18.558;2023-05-20T02:17:17;2.45;;;0.70;;
42912;SDS011;50720;54.324;18.558;2023-05-20T02:19:47;3.65;;;1.02;;
42912;SDS011;50720;54.324;18.558;2023-05-20T02:22:16;2.55;;;0.73;;
42912;SDS011;50720;54.324;18.558;2023-05-20T02:24:46;2.15;;;1.10;;
42912;SDS011;50720;54.324;18.558;2023-05-20T02:27:17;2.28;;;0.82;;
42912;SDS011;50720;54.324;18.558;2023-05-20T02:29:47;1.15;;;0.60;;
42912;SDS011;50720;54.324;18.558;2023-05-20T02:32:16;1.27;;;0.70;;
42912;SDS011;50720;54.324;18.558;2023-05-20T02:34:47;4.40;;;0.90;;
42912;SDS011;50720;54.324;18.558;2023-05-20T02:37:16;4.25;;;0.98;;
42912;SDS011;50720;54.324;18.558;2023-05-20T02:39:47;4.40;;;1.00;;
42912;SDS011;50720;54.324;18.558;2023-05-20T02:44:47;2.53;;;0.60;;
42912;SDS011;50720;54.324;18.558;2023-05-20T02:47:16;2.90;;;1.10;;
42912;SDS011;50720;54.324;18.558;2023-05-20T02:49:46;2.60;;;1.10;;
42912;SDS011;50720;54.324;18.558;2023-05-20T02:52:15;3.88;;;1.15;;
42912;SDS011;50720;54.324;18.558;2023-05-20T02:54:45;1.35;;;0.75;;
42912;SDS011;50720;54.324;18.558;2023-05-20T02:57:16;3.25;;;1.00;;
42912;SDS011;50720;54.324;18.558;2023-05-20T02:59:45;1.88;;;1.08;;
42912;SDS011;50720;54.324;18.558;2023-05-20T03:02:15;3.40;;;1.20;;
42912;SDS011;50720;54.324;18.558;2023-05-20T03:04:44;3.03;;;1.00;;
42912;SDS011;50720;54.324;18.558;2023-05-20T03:07:14;4.05;;;0.93;;
42912;SDS011;50720;54.324;18.558;2023-05-20T03:09:48;4.28;;;1.38;;
42912;SDS011;50720;54.324;18.558;2023-05-20T03:12:19;2.95;;;0.88;;
42912;SDS011;50720;54.324;18.558;2023-05-20T03:14:48;6.60;;;1.15;;
42912;SDS011;50720;54.324;18.558;2023-05-20T03:17:21;1.42;;;1.00;;
42912;SDS011;50720;54.324;18.558;2023-05-20T03:19:51;3.05;;;0.82;;
42912;SDS011;50720;54.324;18.558;2023-05-20T03:22:20;5.05;;;1.10;;
42912;SDS011;50720;54.324;18.558;2023-05-20T03:24:50;1.40;;;0.80;;
42912;SDS011;50720;54.324;18.558;2023-05-20T03:27:21;2.58;;;1.42;;
42912;SDS011;50720;54.324;18.558;2023-05-20T03:29:52;3.17;;;0.98;;
42912;SDS011;50720;54.324;18.558;2023-05-20T03:32:22;1.67;;;1.10;;
42912;SDS011;50720;54.324;18.558;2023-05-20T03:34:52;7.47;;;1.20;;
42912;SDS011;50720;54.324;18.558;2023-05-20T03:37:24;3.55;;;1.00;;
42912;SDS011;50720;54.324;18.558;2023-05-20T03:39:53;3.22;;;1.10;;
42912;SDS011;50720;54.324;18.558;2023-05-20T03:42:24;5.03;;;1.17;;
42912;SDS011;50720;54.324;18.558;2023-05-20T03:44:54;4.68;;;0.90;;
42912;SDS011;50720;54.324;18.558;2023-05-20T03:47:24;3.08;;;1.30;;
42912;SDS011;50720;54.324;18.558;2023-05-20T03:49:53;2.67;;;0.95;;
42912;SDS011;50720;54.324;18.558;2023-05-20T03:52:23;6.47;;;2.20;;
42912;SDS011;50720;54.324;18.558;2023-05-20T03:54:53;2.03;;;1.15;;
42912;SDS011;50720;54.324;18.558;2023-05-20T03:57:24;4.90;;;1.00;;
42912;SDS011;50720;54.324;18.558;2023-05-20T03:59:56;3.63;;;1.92;;
42912;SDS011;50720;54.324;18.558;2023-05-20T04:02:25;1.20;;;0.90;;
42912;SDS011;50720;54.324;18.558;2023-05-20T04:04:55;9.27;;;1.27;;
42912;SDS011;50720;54.324;18.558;2023-05-20T04:07:24;4.55;;;1.48;;
42912;SDS011;50720;54.324;18.558;2023-05-20T04:09:56;5.55;;;1.17;;
42912;SDS011;50720;54.324;18.558;2023-05-20T04:12:27;2.20;;;0.77;;
42912;SDS011;50720;54.324;18.558;2023-05-20T04:14:58;2.15;;;0.88;;
42912;SDS011;50720;54.324;18.558;2023-05-20T04:17:29;2.00;;;1.20;;
42912;SDS011;50720;54.324;18.558;2023-05-20T04:19:59;4.22;;;1.30;;
42912;SDS011;50720;54.324;18.558;2023-05-20T04:22:28;3.17;;;1.35;;
42912;SDS011;50720;54.324;18.558;2023-05-20T04:24:58;3.63;;;1.25;;
42912;SDS011;50720;54.324;18.558;2023-05-20T04:27:30;4.57;;;1.42;;
42912;SDS011;50720;54.324;18.558;2023-05-20T04:30:01;2.22;;;1.35;;
42912;SDS011;50720;54.324;18.558;2023-05-20T04:32:31;3.60;;;1.17;;
42912;SDS011;50720;54.324;18.558;2023-05-20T04:35:02;3.90;;;1.13;;
42912;SDS011;50720;54.324;18.558;2023-05-20T04:37:35;4.68;;;1.27;;
42912;SDS011;50720;54.324;18.558;2023-05-20T04:40:05;3.33;;;1.27;;
42912;SDS011;50720;54.324;18.558;2023-05-20T04:42:37;5.72;;;1.63;;
42912;SDS011;50720;54.324;18.558;2023-05-20T04:45:07;2.25;;;1.02;;
42912;SDS011;50720;54.324;18.558;2023-05-20T04:47:37;2.50;;;1.30;;
42912;SDS011;50720;54.324;18.558;2023-05-20T04:50:09;4.82;;;1.40;;
42912;SDS011;50720;54.324;18.558;2023-05-20T04:52:39;4.00;;;1.50;;
42912;SDS011;50720;54.324;18.558;2023-05-20T04:55:12;5.68;;;1.15;;
42912;SDS011;50720;54.324;18.558;2023-05-20T04:57:43;6.88;;;1.63;;
42912;SDS011;50720;54.324;18.558;2023-05-20T05:00:13;6.10;;;1.60;;
42912;SDS011;50720;54.324;18.558;2023-05-20T05:02:43;3.92;;;1.23;;
42912;SDS011;50720;54.324;18.558;2023-05-20T05:05:14;5.63;;;1.50;;
42912;SDS011;50720;54.324;18.558;2023-05-20T05:07:44;3.47;;;1.50;;
42912;SDS011;50720;54.324;18.558;2023-05-20T05:10:16;3.95;;;1.55;;
42912;SDS011;50720;54.324;18.558;2023-05-20T05:12:46;2.20;;;1.40;;
42912;SDS011;50720;54.324;18.558;2023-05-20T05:15:16;3.00;;;1.17;;
42912;SDS011;50720;54.324;18.558;2023-05-20T05:17:46;2.90;;;1.23;;
42912;SDS011;50720;54.324;18.558;2023-05-20T05:20:16;3.08;;;1.17;;
42912;SDS011;50720;54.324;18.558;2023-05-20T05:22:46;4.20;;;1.83;;
42912;SDS011;50720;54.324;18.558;2023-05-20T05:27:47;7.53;;;1.42;;
42912;SDS011;50720;54.324;18.558;2023-05-20T05:30:17;2.60;;;1.27;;
42912;SDS011;50720;54.324;18.558;2023-05-20T05:32:48;4.80;;;1.42;;
42912;SDS011;50720;54.324;18.558;2023-05-20T05:35:18;3.35;;;1.30;;
42912;SDS011;50720;54.324;18.558;2023-05-20T05:37:47;4.38;;;1.73;;
42912;SDS011;50720;54.324;18.558;2023-05-20T05:40:17;4.78;;;1.52;;
42912;SDS011;50720;54.324;18.558;2023-05-20T05:42:49;5.53;;;1.77;;
42912;SDS011;50720;54.324;18.558;2023-05-20T05:45:19;6.72;;;2.03;;
42912;SDS011;50720;54.324;18.558;2023-05-20T05:47:48;6.80;;;1.50;;
42912;SDS011;50720;54.324;18.558;2023-05-20T05:50:18;3.88;;;1.10;;
42912;SDS011;50720;54.324;18.558;2023-05-20T05:52:47;5.03;;;1.70;;
42912;SDS011;50720;54.324;18.558;2023-05-20T05:55:17;3.00;;;1.80;;
42912;SDS011;50720;54.324;18.558;2023-05-20T05:57:46;5.38;;;1.42;;
42912;SDS011;50720;54.324;18.558;2023-05-20T06:00:18;3.28;;;1.20;;
42912;SDS011;50720;54.324;18.558;2023-05-20T06:02:48;5.38;;;1.20;;
42912;SDS011;50720;54.324;18.558;2023-05-20T06:05:18;4.50;;;1.67;;
42912;SDS011;50720;54.324;18.558;2023-05-20T06:07:47;6.65;;;1.55;;
42912;SDS011;50720;54.324;18.558;2023-05-20T06:10:17;6.20;;;1.80;;
42912;SDS011;50720;54.324;18.558;2023-05-20T06:12:46;13.07;;;1.73;;
42912;SDS011;50720;54.324;18.558;2023-05-20T06:15:18;5.32;;;2.38;;
42912;SDS011;50720;54.324;18.558;2023-05-20T06:17:47;7.45;;;2.20;;
42912;SDS011;50720;54.324;18.558;2023-05-20T06:20:17;2.15;;;1.40;;
42912;SDS011;50720;54.324;18.558;2023-05-20T06:22:47;5.78;;;1.83;;
42912;SDS011;50720;54.324;18.558;2023-05-20T06:25:16;4.25;;;1.58;;
42912;SDS011;50720;54.324;18.558;2023-05-20T06:27:46;9.93;;;3.15;;
42912;SDS011;50720;54.324;18.558;2023-05-20T06:30:17;7.43;;;2.75;;
42912;SDS011;50720;54.324;18.558;2023-05-20T06:32:46;7.38;;;1.33;;
42912;SDS011;50720;54.324;18.558;2023-05-20T06:35:16;3.90;;;2.03;;
42912;SDS011;50720;54.324;18.558;2023-05-20T06:37:46;4.53;;;1.95;;
42912;SDS011;50720;54.324;18.558;2023-05-20T06:40:16;4.13;;;2.23;;
42912;SDS011;50720;54.324;18.558;2023-05-20T06:42:45;11.10;;;2.53;;
42912;SDS011;50720;54.324;18.558;2023-05-20T06:45:17;6.93;;;1.87;;
42912;SDS011;50720;54.324;18.558;2023-05-20T06:47:46;5.00;;;2.30;;
42912;SDS011;50720;54.324;18.558;2023-05-20T06:50:16;4.95;;;2.50;;
42912;SDS011;50720;54.324;18.558;2023-05-20T06:52:46;2.72;;;1.75;;
42912;SDS011;50720;54.324;18.558;2023-05-20T06:55:15;5.55;;;2.63;;
42912;SDS011;50720;54.324;18.558;2023-05-20T06:57:45;3.78;;;1.77;;
42912;SDS011;50720;54.324;18.558;2023-05-20T07:00:15;6.28;;;1.80;;
42912;SDS011;50720;54.324;18.558;2023-05-20T07:02:46;3.47;;;2.10;;
42912;SDS011;50720;54.324;18.558;2023-05-20T07:05:15;6.10;;;2.20;;
42912;SDS011;50720;54.324;18.558;2023-05-20T07:07:45;5.72;;;2.25;;
42912;SDS011;50720;54.324;18.558;2023-05-20T07:10:15;4.50;;;2.20;;
42912;SDS011;50720;54.324;18.558;2023-05-20T07:12:44;9.48;;;2.47;;
42912;SDS011;50720;54.324;18.558;2023-05-20T07:15:15;5.95;;;2.30;;
42912;SDS011;50720;54.324;18.558;2023-05-20T07:17:45;4.65;;;2.08;;
42912;SDS011;50720;54.324;18.558;2023-05-20T07:20:16;4.22;;;1.70;;
42912;SDS011;50720;54.324;18.558;2023-05-20T07:22:45;2.90;;;2.10;;
42912;SDS011;50720;54.324;18.558;2023-05-20T07:25:17;6.10;;;1.95;;
42912;SDS011;50720;54.324;18.558;2023-05-20T07:27:46;8.05;;;2.00;;
42912;SDS011;50720;54.324;18.558;2023-05-20T07:30:17;3.40;;;1.90;;
42912;SDS011;50720;54.324;18.558;2023-05-20T07:32:47;4.00;;;1.70;;
42912;SDS011;50720;54.324;18.558;2023-05-20T07:35:16;4.63;;;1.98;;
42912;SDS011;50720;54.324;18.558;2023-05-20T07:37:46;5.28;;;1.63;;
42912;SDS011;50720;54.324;18.558;2023-05-20T07:40:15;7.07;;;2.33;;
42912;SDS011;50720;54.324;18.558;2023-05-20T07:42:45;7.68;;;2.17;;
42912;SDS011;50720;54.324;18.558;2023-05-20T07:45:15;5.57;;;2.40;;
42912;SDS011;50720;54.324;18.558;2023-05-20T07:47:46;5.80;;;2.30;;
42912;SDS011;50720;54.324;18.558;2023-05-20T07:50:15;8.00;;;2.17;;
42912;SDS011;50720;54.324;18.558;2023-05-20T07:52:45;4.47;;;1.73;;
42912;SDS011;50720;54.324;18.558;2023-05-20T07:55:21;5.32;;;1.92;;
42912;SDS011;50720;54.324;18.558;2023-05-20T07:57:50;6.78;;;2.53;;
42912;SDS011;50720;54.324;18.558;2023-05-20T08:00:20;11.45;;;2.58;;
42912;SDS011;50720;54.324;18.558;2023-05-20T08:02:51;2.95;;;2.10;;
42912;SDS011;50720;54.324;18.558;2023-05-20T08:05:21;7.68;;;2.25;;
42912;SDS011;50720;54.324;18.558;2023-05-20T08:07:51;6.38;;;2.25;;
42912;SDS011;50720;54.324;18.558;2023-05-20T08:10:21;12.88;;;2.00;;
42912;SDS011;50720;54.324;18.558;2023-05-20T08:12:50;7.85;;;2.67;;
42912;SDS011;50720;54.324;18.558;2023-05-20T08:15:20;6.07;;;2.63;;
42912;SDS011;50720;54.324;18.558;2023-05-20T08:17:51;3.85;;;2.30;;
42912;SDS011;50720;54.324;18.558;2023-05-20T08:20:21;7.05;;;2.38;;
42912;SDS011;50720;54.324;18.558;2023-05-20T08:22:52;7.72;;;2.47;;
42912;SDS011;50720;54.324;18.558;2023-05-20T08:25:22;8.57;;;2.20;;
42912;SDS011;50720;54.324;18.558;2023-05-20T08:27:52;5.18;;;2.10;;
42912;SDS011;50720;54.324;18.558;2023-05-20T08:30:22;8.45;;;2.75;;
42912;SDS011;50720;54.324;18.558;2023-05-20T08:32:53;12.00;;;2.95;;
42912;SDS011;50720;54.324;18.558;2023-05-20T08:35:22;9.27;;;2.45;;
42912;SDS011;50720;54.324;18.558;2023-05-20T08:37:52;3.50;;;1.77;;
42912;SDS011;50720;54.324;18.558;2023-05-20T08:40:22;2.53;;;1.70;;
42912;SDS011;50720;54.324;18.558;2023-05-20T08:42:52;4.20;;;2.42;;
42912;SDS011;50720;54.324;18.558;2023-05-20T08:45:22;3.88;;;2.00;;
42912;SDS011;50720;54.324;18.558;2023-05-20T08:47:56;4.15;;;2.28;;
42912;SDS011;50720;54.324;18.558;2023-05-20T08:50:26;3.25;;;2.10;;
42912;SDS011;50720;54.324;18.558;2023-05-20T08:52:55;7.68;;;2.13;;
42912;SDS011;50720;54.324;18.558;2023-05-20T08:55:35;3.40;;;2.00;;
42912;SDS011;50720;54.324;18.558;2023-05-20T08:58:09;6.85;;;2.42;;
42912;SDS011;50720;54.324;18.558;2023-05-20T09:00:39;8.88;;;2.30;;
42912;SDS011;50720;54.324;18.558;2023-05-20T09:03:10;6.13;;;2.05;;
42912;SDS011;50720;54.324;18.558;2023-05-20T09:05:40;4.90;;;2.30;;
42912;SDS011;50720;54.324;18.558;2023-05-20T09:08:10;8.95;;;2.80;;
42912;SDS011;50720;54.324;18.558;2023-05-20T09:10:40;5.57;;;2.13;;
42912;SDS011;50720;54.324;18.558;2023-05-20T09:13:10;4.68;;;2.53;;
42912;SDS011;50720;54.324;18.558;2023-05-20T09:15:40;8.30;;;2.50;;
42912;SDS011;50720;54.324;18.558;2023-05-20T09:18:10;5.78;;;2.40;;
42912;SDS011;50720;54.324;18.558;2023-05-20T09:20:40;3.55;;;2.42;;
42912;SDS011;50720;54.324;18.558;2023-05-20T09:23:10;9.88;;;3.40;;
42912;SDS011;50720;54.324;18.558;2023-05-20T09:25:40;7.00;;;2.87;;
42912;SDS011;50720;54.324;18.558;2023-05-20T09:28:09;4.80;;;2.40;;
42912;SDS011;50720;54.324;18.558;2023-05-20T09:30:39;5.97;;;2.42;;
42912;SDS011;50720;54.324;18.558;2023-05-20T09:33:13;5.75;;;2.47;;
42912;SDS011;50720;54.324;18.558;2023-05-20T09:35:43;10.73;;;3.33;;
42912;SDS011;50720;54.324;18.558;2023-05-20T09:38:12;5.68;;;2.97;;
42912;SDS011;50720;54.324;18.558;2023-05-20T09:40:43;5.45;;;2.35;;
42912;SDS011;50720;54.324;18.558;2023-05-20T09:43:13;6.18;;;2.47;;
42912;SDS011;50720;54.324;18.558;2023-05-20T09:48:15;4.82;;;2.50;;
42912;SDS011;50720;54.324;18.558;2023-05-20T09:50:46;6.88;;;2.55;;
42912;SDS011;50720;54.324;18.558;2023-05-20T09:55:46;5.78;;;2.75;;
42912;SDS011;50720;54.324;18.558;2023-05-20T09:58:16;5.32;;;2.38;;
42912;SDS011;50720;54.324;18.558;2023-05-20T10:00:48;3.20;;;2.22;;
42912;SDS011;50720;54.324;18.558;2023-05-20T10:03:19;5.15;;;2.47;;
42912;SDS011;50720;54.324;18.558;2023-05-20T10:05:58;6.10;;;2.40;;
42912;SDS011;50720;54.324;18.558;2023-05-20T10:08:46;12.23;;;3.30;;
42912;SDS011;50720;54.324;18.558;2023-05-20T10:11:27;7.85;;;4.10;;
42912;SDS011;50720;54.324;18.558;2023-05-20T10:14:16;5.95;;;2.88;;
42912;SDS011;50720;54.324;18.558;2023-05-20T10:17:04;10.00;;;3.03;;
42912;SDS011;50720;54.324;18.558;2023-05-20T10:19:39;8.43;;;3.63;;
42912;SDS011;50720;54.324;18.558;2023-05-20T10:22:09;7.85;;;2.88;;
42912;SDS011;50720;54.324;18.558;2023-05-20T10:24:40;6.05;;;3.05;;
42912;SDS011;50720;54.324;18.558;2023-05-20T10:27:12;8.05;;;3.40;;
42912;SDS011;50720;54.324;18.558;2023-05-20T10:29:43;8.27;;;3.53;;
42912;SDS011;50720;54.324;18.558;2023-05-20T10:32:22;4.35;;;3.20;;
42912;SDS011;50720;54.324;18.558;2023-05-20T10:34:57;7.75;;;3.40;;
42912;SDS011;50720;54.324;18.558;2023-05-20T10:37:29;6.13;;;3.42;;
42912;SDS011;50720;54.324;18.558;2023-05-20T10:40:06;8.30;;;3.22;;
42912;SDS011;50720;54.324;18.558;2023-05-20T10:42:37;7.10;;;3.25;;
42912;SDS011;50720;54.324;18.558;2023-05-20T10:45:07;7.17;;;3.20;;
42912;SDS011;50720;54.324;18.558;2023-05-20T10:47:41;8.75;;;3.45;;
42912;SDS011;50720;54.324;18.558;2023-05-20T10:50:33;7.20;;;2.58;;
42912;SDS011;50720;54.324;18.558;2023-05-20T10:53:04;12.73;;;4.03;;
42912;SDS011;50720;54.324;18.558;2023-05-20T10:55:48;9.52;;;3.90;;
42912;SDS011;50720;54.324;18.558;2023-05-20T10:58:20;7.75;;;3.13;;
42912;SDS011;50720;54.324;18.558;2023-05-20T11:00:52;7.47;;;3.00;;
42912;SDS011;50720;54.324;18.558;2023-05-20T11:03:22;10.68;;;3.70;;
42912;SDS011;50720;54.324;18.558;2023-05-20T11:05:54;6.47;;;3.13;;
42912;SDS011;50720;54.324;18.558;2023-05-20T11:08:26;7.05;;;3.17;;
42912;SDS011;50720;54.324;18.558;2023-05-20T11:10:57;5.85;;;3.38;;
42912;SDS011;50720;54.324;18.558;2023-05-20T11:13:27;5.87;;;3.30;;
42912;SDS011;50720;54.324;18.558;2023-05-20T11:15:59;8.00;;;3.45;;
42912;SDS011;50720;54.324;18.558;2023-05-20T11:18:29;4.70;;;3.20;;
42912;SDS011;50720;54.324;18.558;2023-05-20T11:21:01;10.98;;;3.90;;
42912;SDS011;50720;54.324;18.558;2023-05-20T11:23:31;6.70;;;3.17;;
42912;SDS011;50720;54.324;18.558;2023-05-20T11:26:01;8.63;;;3.70;;
42912;SDS011;50720;54.324;18.558;2023-05-20T11:28:34;4.90;;;2.70;;
42912;SDS011;50720;54.324;18.558;2023-05-20T11:31:03;9.05;;;3.33;;
42912;SDS011;50720;54.324;18.558;2023-05-20T11:36:05;4.38;;;2.92;;
42912;SDS011;50720;54.324;18.558;2023-05-20T11:41:25;10.45;;;3.45;;
42912;SDS011;50720;54.324;18.558;2023-05-20T11:43:58;6.22;;;3.13;;
42912;SDS011;50720;54.324;18.558;2023-05-20T11:46:28;10.73;;;3.58;;
42912;SDS011;50720;54.324;18.558;2023-05-20T11:48:58;4.65;;;2.65;;
42912;SDS011;50720;54.324;18.558;2023-05-20T11:51:30;7.10;;;2.85;;
42912;SDS011;50720;54.324;18.558;2023-05-20T11:54:01;5.32;;;3.50;;
42912;SDS011;50720;54.324;18.558;2023-05-20T11:56:32;4.93;;;3.00;;
42912;SDS011;50720;54.324;18.558;2023-05-20T11:59:03;5.97;;;2.90;;
42912;SDS011;50720;54.324;18.558;2023-05-20T12:01:34;3.97;;;2.47;;
42912;SDS011;50720;54.324;18.558;2023-05-20T12:04:07;5.03;;;2.83;;
42912;SDS011;50720;54.324;18.558;2023-05-20T12:06:38;4.88;;;2.33;;
42912;SDS011;50720;54.324;18.558;2023-05-20T12:09:09;5.13;;;3.00;;
42912;SDS011;50720;54.324;18.558;2023-05-20T12:11:40;9.82;;;2.90;;
42912;SDS011;50720;54.324;18.558;2023-05-20T12:14:11;3.67;;;2.40;;
42912;SDS011;50720;54.324;18.558;2023-05-20T12:16:41;3.60;;;2.47;;
42912;SDS011;50720;54.324;18.558;2023-05-20T12:19:10;7.90;;;3.20;;
42912;SDS011;50720;54.324;18.558;2023-05-20T12:21:41;4.30;;;2.65;;
42912;SDS011;50720;54.324;18.558;2023-05-20T12:24:13;6.05;;;3.00;;
42912;SDS011;50720;54.324;18.558;2023-05-20T12:26:43;5.85;;;2.45;;
42912;SDS011;50720;54.324;18.558;2023-05-20T12:29:13;7.15;;;3.60;;
42912;SDS011;50720;54.324;18.558;2023-05-20T12:31:42;6.53;;;2.92;;
42912;SDS011;50720;54.324;18.558;2023-05-20T12:34:12;5.03;;;2.90;;
42912;SDS011;50720;54.324;18.558;2023-05-20T12:36:42;8.68;;;2.75;;
42912;SDS011;50720;54.324;18.558;2023-05-20T12:39:13;4.25;;;3.10;;
42912;SDS011;50720;54.324;18.558;2023-05-20T12:41:43;7.80;;;2.72;;
42912;SDS011;50720;54.324;18.558;2023-05-20T12:44:13;8.52;;;2.70;;
42912;SDS011;50720;54.324;18.558;2023-05-20T12:46:42;5.13;;;2.47;;
42912;SDS011;50720;54.324;18.558;2023-05-20T12:49:13;6.40;;;2.33;;
42912;SDS011;50720;54.324;18.558;2023-05-20T12:51:44;5.63;;;2.40;;
42912;SDS011;50720;54.324;18.558;2023-05-20T12:54:13;4.55;;;3.17;;
42912;SDS011;50720;54.324;18.558;2023-05-20T12:56:44;9.73;;;2.60;;
42912;SDS011;50720;54.324;18.558;2023-05-20T12:59:14;7.80;;;3.08;;
42912;SDS011;50720;54.324;18.558;2023-05-20T13:01:44;7.40;;;2.67;;
42912;SDS011;50720;54.324;18.558;2023-05-20T13:04:13;6.03;;;2.80;;
42912;SDS011;50720;54.324;18.558;2023-05-20T13:06:44;7.50;;;2.25;;
42912;SDS011;50720;54.324;18.558;2023-05-20T13:09:14;4.43;;;2.97;;
42912;SDS011;50720;54.324;18.558;2023-05-20T13:11:43;5.63;;;2.63;;
42912;SDS011;50720;54.324;18.558;2023-05-20T13:14:13;4.97;;;3.20;;
42912;SDS011;50720;54.324;18.558;2023-05-20T13:16:43;8.65;;;2.70;;
42912;SDS011;50720;54.324;18.558;2023-05-20T13:19:13;6.78;;;3.03;;
42912;SDS011;50720;54.324;18.558;2023-05-20T13:21:42;9.70;;;3.83;;
42912;SDS011;50720;54.324;18.558;2023-05-20T13:24:14;6.00;;;2.45;;
42912;SDS011;50720;54.324;18.558;2023-05-20T13:26:43;6.78;;;2.42;;
42912;SDS011;50720;54.324;18.558;2023-05-20T13:29:13;7.55;;;2.75;;
42912;SDS011;50720;54.324;18.558;2023-05-20T13:31:43;5.90;;;3.10;;
42912;SDS011;50720;54.324;18.558;2023-05-20T13:34:13;9.50;;;3.00;;
42912;SDS011;50720;54.324;18.558;2023-05-20T13:36:43;5.43;;;2.87;;
42912;SDS011;50720;54.324;18.558;2023-05-20T13:39:15;6.90;;;2.88;;
42912;SDS011;50720;54.324;18.558;2023-05-20T13:41:44;5.90;;;2.55;;
42912;SDS011;50720;54.324;18.558;2023-05-20T13:44:14;5.40;;;3.00;;
42912;SDS011;50720;54.324;18.558;2023-05-20T13:46:43;5.50;;;3.05;;
42912;SDS011;50720;54.324;18.558;2023-05-20T13:49:13;6.80;;;2.78;;
42912;SDS011;50720;54.324;18.558;2023-05-20T13:51:43;11.25;;;3.08;;
42912;SDS011;50720;54.324;18.558;2023-05-20T13:54:14;3.53;;;2.67;;
42912;SDS011;50720;54.324;18.558;2023-05-20T13:56:43;5.32;;;3.30;;
42912;SDS011;50720;54.324;18.558;2023-05-20T13:59:13;10.65;;;3.65;;
42912;SDS011;50720;54.324;18.558;2023-05-20T14:01:43;16.45;;;5.63;;
42912;SDS011;50720;54.324;18.558;2023-05-20T14:04:13;6.65;;;2.88;;
42912;SDS011;50720;54.324;18.558;2023-05-20T14:06:42;4.88;;;2.90;;
42912;SDS011;50720;54.324;18.558;2023-05-20T14:09:14;18.83;;;6.80;;
42912;SDS011;50720;54.324;18.558;2023-05-20T14:11:43;6.45;;;2.80;;
42912;SDS011;50720;54.324;18.558;2023-05-20T14:14:13;8.10;;;3.87;;
42912;SDS011;50720;54.324;18.558;2023-05-20T14:16:42;6.25;;;2.97;;
42912;SDS011;50720;54.324;18.558;2023-05-20T14:19:12;8.57;;;2.67;;
42912;SDS011;50720;54.324;18.558;2023-05-20T14:21:42;3.28;;;2.55;;
42912;SDS011;50720;54.324;18.558;2023-05-20T14:24:13;4.13;;;2.77;;
42912;SDS011;50720;54.324;18.558;2023-05-20T14:26:43;4.82;;;2.50;;
42912;SDS011;50720;54.324;18.558;2023-05-20T14:29:13;7.97;;;2.67;;
42912;SDS011;50720;54.324;18.558;2023-05-20T14:31:42;8.57;;;2.88;;
42912;SDS011;50720;54.324;18.558;2023-05-20T14:34:12;6.23;;;2.70;;
42912;SDS011;50720;54.324;18.558;2023-05-20T14:36:41;10.32;;;2.75;;
42912;SDS011;50720;54.324;18.558;2023-05-20T14:39:13;6.85;;;3.45;;
42912;SDS011;50720;54.324;18.558;2023-05-20T14:41:43;8.13;;;6.43;;
42912;SDS011;50720;54.324;18.558;2023-05-20T14:44:13;4.32;;;2.75;;
42912;SDS011;50720;54.324;18.558;2023-05-20T14:46:42;4.38;;;2.40;;
42912;SDS011;50720;54.324;18.558;2023-05-20T14:49:12;8.95;;;2.83;;
42912;SDS011;50720;54.324;18.558;2023-05-20T14:51:42;8.27;;;2.10;;
42912;SDS011;50720;54.324;18.558;2023-05-20T14:54:13;4.95;;;2.97;;
42912;SDS011;50720;54.324;18.558;2023-05-20T14:56:45;4.45;;;2.53;;
42912;SDS011;50720;54.324;18.558;2023-05-20T14:59:16;3.60;;;2.00;;
42912;SDS011;50720;54.324;18.558;2023-05-20T15:01:45;6.38;;;2.13;;
42912;SDS011;50720;54.324;18.558;2023-05-20T15:04:15;4.35;;;2.28;;
42912;SDS011;50720;54.324;18.558;2023-05-20T15:06:44;5.28;;;1.98;;
42912;SDS011;50720;54.324;18.558;2023-05-20T15:09:16;5.20;;;2.05;;
42912;SDS011;50720;54.324;18.558;2023-05-20T15:11:45;6.43;;;2.35;;
42912;SDS011;50720;54.324;18.558;2023-05-20T15:14:16;5.25;;;2.17;;
42912;SDS011;50720;54.324;18.558;2023-05-20T15:16:45;6.30;;;1.90;;